Terminal Aerodrome Forecast
Issued by NWS Burlington, VT

Home | Current Version | Previous Version | Text Only | Print | Product List | Glossary On
Versions: 1 2 3 4 5 6 7 8 9 10 11 12 13 14 15 16 17
000
FTUS41 KBTV 080531
TAFBTV
TAF
KBTV 080531Z 0806/0906 18004KT P6SM OVC040
     FM081400 20008KT P6SM VCSH OVC040
      TEMPO 0815/0818 21010G16KT 3SM -SHSN OVC025
     FM082000 25008KT P6SM VCSH BKN045
     FM082300 25007KT P6SM BKN050=

USA.gov is the U.S. government's official web portal to all federal, state and local government web resources and services.